createdAt,value
2023-03-21T00:00:55.468Z,2.60
2023-03-21T00:03:23.414Z,2.50
2023-03-21T00:05:53.437Z,2.67
2023-03-21T00:08:22.162Z,2.80
2023-03-21T00:10:56.765Z,2.47
2023-03-21T00:13:26.469Z,2.45
2023-03-21T00:16:05.382Z,2.58
2023-03-21T00:18:42.270Z,2.17
2023-03-21T00:21:39.579Z,3.28
2023-03-21T00:24:03.416Z,2.88
2023-03-21T00:26:32.980Z,2.53
2023-03-21T00:29:00.795Z,2.78
2023-03-21T00:31:28.679Z,2.63
2023-03-21T00:33:56.630Z,2.80
2023-03-21T00:36:25.953Z,2.67
2023-03-21T00:38:54.104Z,2.60
2023-03-21T00:41:38.991Z,2.63
2023-03-21T00:44:11.604Z,3.25
2023-03-21T00:46:47.251Z,2.72
2023-03-21T00:49:20.924Z,2.40
2023-03-21T00:51:51.233Z,2.65
2023-03-21T00:54:19.576Z,2.63
2023-03-21T00:56:47.406Z,2.70
2023-03-21T00:59:17.319Z,2.90
2023-03-21T01:01:46.748Z,3.40
2023-03-21T01:04:16.887Z,3.08
2023-03-21T01:06:45.456Z,3.10
2023-03-21T01:09:16.742Z,2.72
2023-03-21T01:11:44.842Z,2.88
2023-03-21T01:14:28.830Z,3.17
2023-03-21T01:16:58.185Z,3.17
2023-03-21T01:19:41.027Z,3.22
2023-03-21T01:22:16.240Z,3.10
2023-03-21T01:24:53.127Z,2.80
2023-03-21T01:27:22.329Z,3.05
2023-03-21T01:29:50.424Z,3.00
2023-03-21T01:32:19.592Z,3.33
2023-03-21T01:34:47.456Z,3.40
2023-03-21T01:37:17.737Z,3.38
2023-03-21T01:39:48.695Z,3.47
2023-03-21T01:42:17.089Z,3.60
2023-03-21T01:44:58.677Z,3.50
2023-03-21T01:47:35.874Z,3.50
2023-03-21T01:50:09.554Z,3.20
2023-03-21T01:52:49.903Z,3.58
2023-03-21T01:55:25.388Z,3.53
2023-03-21T01:58:05.835Z,3.47
2023-03-21T02:00:51.626Z,3.15
2023-03-21T02:03:38.038Z,3.27
2023-03-21T02:06:25.166Z,3.40
2023-03-21T02:09:01.761Z,3.35
2023-03-21T02:11:32.145Z,3.20
2023-03-21T02:14:06.166Z,3.53
2023-03-21T02:17:00.269Z,3.65
2023-03-21T02:20:21.938Z,3.38
2023-03-21T02:23:29.980Z,3.20
2023-03-21T02:26:16.953Z,3.55
2023-03-21T02:28:49.135Z,3.55
2023-03-21T02:31:32.417Z,3.83
2023-03-21T02:34:37.193Z,3.97
2023-03-21T02:37:18.016Z,3.40
2023-03-21T02:40:07.799Z,4.05
2023-03-21T02:42:51.588Z,3.40
2023-03-21T02:45:29.915Z,3.33
2023-03-21T02:48:04.949Z,3.85
2023-03-21T02:50:39.140Z,4.00
2023-03-21T02:55:40.591Z,3.25
2023-03-21T02:58:13.598Z,3.08
2023-03-21T03:00:51.146Z,3.75
2023-03-21T03:03:35.157Z,3.50
2023-03-21T03:06:12.769Z,3.30
2023-03-21T03:09:02.351Z,3.15
2023-03-21T03:11:34.897Z,3.33
2023-03-21T03:14:42.048Z,3.30
2023-03-21T03:17:21.906Z,3.58
2023-03-21T03:20:16.379Z,3.40
2023-03-21T03:22:52.216Z,3.90
2023-03-21T03:25:39.903Z,3.60
2023-03-21T03:28:12.635Z,4.05
2023-03-21T03:30:51.017Z,3.40
2023-03-21T03:33:29.953Z,3.00
2023-03-21T03:36:05.436Z,3.72
2023-03-21T03:38:39.050Z,3.35
2023-03-21T03:41:12.781Z,3.50
2023-03-21T03:43:54.000Z,3.25
2023-03-21T03:46:29.412Z,3.40
2023-03-21T03:49:01.377Z,3.15
2023-03-21T03:51:35.610Z,4.10
2023-03-21T03:54:28.902Z,3.33
2023-03-21T03:56:59.182Z,3.13
2023-03-21T03:59:27.116Z,3.53
2023-03-21T04:02:13.960Z,3.70
2023-03-21T04:04:42.823Z,3.78
2023-03-21T04:07:11.313Z,3.55
2023-03-21T04:09:44.445Z,3.45
2023-03-21T04:12:17.539Z,3.47
2023-03-21T04:15:10.006Z,3.65
2023-03-21T04:17:40.542Z,3.53
2023-03-21T04:20:15.067Z,4.00
2023-03-21T04:22:44.677Z,3.70
2023-03-21T04:25:18.935Z,3.47
2023-03-21T04:27:57.130Z,3.55
2023-03-21T04:30:38.498Z,3.25
2023-03-21T04:33:17.490Z,3.53
2023-03-21T04:35:56.141Z,3.25
2023-03-21T04:38:30.547Z,3.83
2023-03-21T04:41:02.490Z,3.20
2023-03-21T04:43:32.690Z,3.58
2023-03-21T04:46:00.722Z,3.30
2023-03-21T04:48:28.671Z,3.15
2023-03-21T04:50:57.430Z,3.33
2023-03-21T04:53:25.457Z,3.05
2023-03-21T04:55:55.412Z,3.58
2023-03-21T04:58:24.138Z,3.95
2023-03-21T05:00:53.544Z,3.47
2023-03-21T05:03:22.001Z,3.65
2023-03-21T05:05:50.567Z,3.95
2023-03-21T05:08:20.039Z,3.92
2023-03-21T05:10:48.066Z,3.15
2023-03-21T05:13:16.013Z,3.42
2023-03-21T05:15:43.983Z,3.38
2023-03-21T05:18:13.183Z,3.70
2023-03-21T05:20:58.150Z,3.58
2023-03-21T05:23:26.418Z,3.33
2023-03-21T05:25:54.532Z,3.42
2023-03-21T05:28:36.725Z,3.20
2023-03-21T05:31:05.678Z,3.25
2023-03-21T05:33:35.285Z,3.25
2023-03-21T05:36:03.242Z,3.13
2023-03-21T05:38:33.123Z,3.47
2023-03-21T05:41:01.112Z,3.58
2023-03-21T05:43:29.158Z,3.35
2023-03-21T05:45:57.190Z,3.47
2023-03-21T05:48:25.756Z,3.88
2023-03-21T05:51:09.262Z,3.30
2023-03-21T05:53:37.782Z,3.45
2023-03-21T05:56:06.479Z,3.45
2023-03-21T05:58:46.558Z,3.60
2023-03-21T06:01:15.270Z,3.03
2023-03-21T06:03:49.338Z,3.40
2023-03-21T06:06:20.565Z,3.63
2023-03-21T06:09:00.556Z,3.40
2023-03-21T06:11:32.475Z,3.40
2023-03-21T06:14:36.034Z,3.20
2023-03-21T06:17:17.446Z,3.35
2023-03-21T06:19:50.897Z,3.25
2023-03-21T06:22:25.397Z,3.50
2023-03-21T06:24:53.394Z,3.50
2023-03-21T06:27:21.274Z,3.22
2023-03-21T06:29:52.916Z,3.20
2023-03-21T06:32:21.326Z,3.70
2023-03-21T06:34:53.113Z,3.60
2023-03-21T06:37:21.209Z,3.30
2023-03-21T06:39:50.996Z,3.25
2023-03-21T06:42:21.098Z,3.40
2023-03-21T06:44:49.163Z,3.83
2023-03-21T06:47:17.630Z,3.30
2023-03-21T06:49:47.069Z,3.28
2023-03-21T06:52:14.890Z,3.65
2023-03-21T06:54:43.339Z,3.53
2023-03-21T06:57:14.206Z,3.70
2023-03-21T06:59:42.723Z,3.58
2023-03-21T07:02:15.109Z,3.60
2023-03-21T07:04:49.269Z,3.60
2023-03-21T07:07:21.033Z,3.50
2023-03-21T07:09:48.916Z,4.72
2023-03-21T07:12:18.283Z,3.97
2023-03-21T07:15:09.762Z,3.78
2023-03-21T07:17:38.668Z,3.35
2023-03-21T07:20:08.530Z,3.40
2023-03-21T07:22:36.917Z,3.20
2023-03-21T07:25:05.987Z,3.42
2023-03-21T07:27:41.594Z,3.08
2023-03-21T07:30:11.721Z,3.60
2023-03-21T07:32:40.446Z,3.45
2023-03-21T07:35:11.428Z,3.38
2023-03-21T07:37:39.737Z,3.40
2023-03-21T07:40:10.610Z,3.40
2023-03-21T07:42:41.968Z,3.38
2023-03-21T07:45:15.567Z,3.53
2023-03-21T07:47:43.964Z,3.70
2023-03-21T07:50:12.165Z,3.50
2023-03-21T07:52:40.273Z,4.32
2023-03-21T07:55:08.796Z,3.90
2023-03-21T07:57:36.701Z,3.50
2023-03-21T08:00:08.038Z,3.55
2023-03-21T08:02:43.597Z,3.53
2023-03-21T08:05:12.027Z,3.90
2023-03-21T08:07:39.868Z,3.08
2023-03-21T08:10:10.743Z,3.55
2023-03-21T08:12:38.573Z,3.80
2023-03-21T08:15:09.241Z,3.45
2023-03-21T08:17:39.892Z,3.35
2023-03-21T08:20:10.261Z,3.65
2023-03-21T08:22:38.135Z,3.85
2023-03-21T08:25:08.265Z,3.70
2023-03-21T08:27:36.250Z,3.78
2023-03-21T08:30:04.690Z,3.83
2023-03-21T08:32:33.911Z,3.58
2023-03-21T08:35:03.197Z,3.80
2023-03-21T08:37:31.131Z,3.85
2023-03-21T08:39:59.028Z,3.80
2023-03-21T08:42:27.202Z,3.55
2023-03-21T08:44:54.985Z,3.97
2023-03-21T08:47:22.776Z,3.72
2023-03-21T08:49:51.916Z,3.83
2023-03-21T08:52:19.837Z,3.90
2023-03-21T08:54:48.488Z,4.10
2023-03-21T08:57:16.443Z,3.78
2023-03-21T08:59:44.352Z,3.95
2023-03-21T09:02:14.548Z,3.97
2023-03-21T09:04:43.739Z,4.18
2023-03-21T09:07:14.945Z,3.80
2023-03-21T09:09:43.656Z,3.88
2023-03-21T09:12:11.645Z,3.95
2023-03-21T09:14:39.489Z,4.00
2023-03-21T09:17:07.539Z,3.63
2023-03-21T09:19:35.943Z,4.03
2023-03-21T09:22:03.761Z,4.13
2023-03-21T09:24:32.971Z,3.78
2023-03-21T09:27:00.968Z,3.75
2023-03-21T09:29:29.401Z,3.90
2023-03-21T09:31:57.634Z,3.70
2023-03-21T09:34:26.481Z,4.00
2023-03-21T09:36:56.621Z,3.42
2023-03-21T09:39:26.268Z,3.42
2023-03-21T09:42:12.656Z,3.80
2023-03-21T09:44:52.752Z,3.47
2023-03-21T09:47:25.153Z,3.60
2023-03-21T09:50:07.545Z,3.20
2023-03-21T09:52:48.150Z,3.30
2023-03-21T09:55:20.119Z,3.63
2023-03-21T09:57:55.046Z,3.53
2023-03-21T10:00:29.944Z,3.33
2023-03-21T10:03:03.087Z,3.40
2023-03-21T10:05:33.609Z,4.00
2023-03-21T10:08:05.924Z,3.80
2023-03-21T10:10:36.932Z,3.55
2023-03-21T10:13:13.059Z,3.95
2023-03-21T10:15:41.152Z,3.85
2023-03-21T10:18:14.404Z,3.55
2023-03-21T10:20:43.460Z,3.45
2023-03-21T10:23:15.998Z,3.58
2023-03-21T10:25:47.580Z,3.42
2023-03-21T10:28:20.837Z,3.13
2023-03-21T10:30:52.018Z,4.15
2023-03-21T10:33:23.780Z,3.15
2023-03-21T10:35:54.627Z,3.17
2023-03-21T10:38:25.652Z,2.95
2023-03-21T10:40:54.817Z,3.05
2023-03-21T10:43:37.773Z,3.30
2023-03-21T10:48:40.489Z,3.10
2023-03-21T10:51:10.185Z,3.17
2023-03-21T10:53:42.431Z,3.55
2023-03-21T10:56:12.402Z,3.67
2023-03-21T10:58:45.512Z,3.15
2023-03-21T11:01:19.260Z,3.38
2023-03-21T11:03:48.402Z,3.70
2023-03-21T11:06:23.746Z,3.45
2023-03-21T11:08:55.480Z,3.60
2023-03-21T11:11:28.256Z,3.60
2023-03-21T11:16:39.029Z,3.08
2023-03-21T11:19:18.295Z,3.75
2023-03-21T11:21:46.556Z,4.07
2023-03-21T11:24:17.990Z,3.30
2023-03-21T11:26:49.686Z,3.63
2023-03-21T11:29:32.300Z,3.70
2023-03-21T11:32:02.523Z,3.40
2023-03-21T11:34:40.352Z,3.83
2023-03-21T11:37:20.164Z,3.53
2023-03-21T11:39:48.026Z,3.85
2023-03-21T11:42:28.545Z,3.42
2023-03-21T11:45:11.390Z,3.50
2023-03-21T11:47:39.880Z,3.75
2023-03-21T11:50:21.704Z,3.08
2023-03-21T11:53:00.932Z,2.95
2023-03-21T11:55:47.330Z,3.33
2023-03-21T11:58:31.816Z,2.92
2023-03-21T12:01:09.182Z,3.00
2023-03-21T12:03:54.755Z,2.92
2023-03-21T12:06:29.448Z,3.50
2023-03-21T12:09:13.181Z,3.05
2023-03-21T12:11:53.468Z,2.95
2023-03-21T12:14:30.009Z,2.60
2023-03-21T12:17:11.434Z,2.65
2023-03-21T12:20:15.033Z,2.40
2023-03-21T12:25:20.421Z,2.45
2023-03-21T12:28:03.629Z,2.47
2023-03-21T12:30:46.203Z,2.70
2023-03-21T12:33:29.657Z,3.05
2023-03-21T12:36:23.177Z,2.55
2023-03-21T12:38:59.852Z,2.85
2023-03-21T12:41:35.858Z,2.70
2023-03-21T12:44:06.658Z,2.90
2023-03-21T12:46:40.246Z,2.67
2023-03-21T12:49:14.834Z,3.00
2023-03-21T12:51:45.004Z,2.42
2023-03-21T12:54:22.465Z,2.58
2023-03-21T12:56:55.828Z,2.72
2023-03-21T12:59:32.158Z,2.88
2023-03-21T13:02:06.815Z,2.55
2023-03-21T13:04:53.426Z,2.67
2023-03-21T13:07:25.441Z,2.58
2023-03-21T13:09:55.294Z,2.40
2023-03-21T13:12:33.119Z,2.60
2023-03-21T13:15:24.000Z,2.40
2023-03-21T13:18:02.701Z,2.50
2023-03-21T13:20:39.841Z,2.60
2023-03-21T13:23:09.113Z,2.33
2023-03-21T13:25:43.569Z,2.35
2023-03-21T13:28:19.708Z,3.15
2023-03-21T13:30:48.767Z,2.63
2023-03-21T13:33:21.684Z,3.00
2023-03-21T13:38:28.010Z,2.78
2023-03-21T13:41:01.775Z,2.28
2023-03-21T13:43:43.198Z,2.42
2023-03-21T13:46:13.822Z,2.42
2023-03-21T13:49:00.169Z,3.08
2023-03-21T13:51:48.023Z,3.13
2023-03-21T13:54:24.199Z,2.83
2023-03-21T13:56:57.771Z,2.45
2023-03-21T13:59:42.490Z,2.53
2023-03-21T14:02:30.784Z,2.78
2023-03-21T14:05:06.118Z,2.42
2023-03-21T14:07:38.054Z,2.47
2023-03-21T14:10:10.618Z,2.60
2023-03-21T14:12:41.231Z,2.85
2023-03-21T14:15:17.171Z,2.40
2023-03-21T14:17:51.790Z,2.55
2023-03-21T14:20:22.718Z,2.47
2023-03-21T14:22:52.047Z,2.58
2023-03-21T14:25:23.235Z,2.75
2023-03-21T14:27:55.882Z,2.40
2023-03-21T14:30:27.022Z,2.50
2023-03-21T14:32:57.478Z,2.63
2023-03-21T14:35:31.304Z,2.60
2023-03-21T14:38:05.415Z,2.65
2023-03-21T14:40:33.339Z,2.88
2023-03-21T14:43:06.221Z,2.35
2023-03-21T14:45:37.169Z,2.90
2023-03-21T14:48:08.545Z,2.25
2023-03-21T14:50:41.966Z,2.55
2023-03-21T14:53:17.509Z,2.63
2023-03-21T14:55:48.190Z,2.17
2023-03-21T14:58:17.978Z,2.63
2023-03-21T15:00:49.715Z,2.63
2023-03-21T15:03:18.749Z,2.83
2023-03-21T15:05:47.814Z,2.45
2023-03-21T15:08:19.901Z,2.90
2023-03-21T15:11:06.314Z,2.65
2023-03-21T15:13:38.011Z,2.20
2023-03-21T15:16:06.721Z,2.08
2023-03-21T15:18:38.077Z,2.70
2023-03-21T15:21:11.862Z,2.20
2023-03-21T15:23:44.083Z,2.75
2023-03-21T15:26:17.190Z,2.63
2023-03-21T15:28:47.718Z,2.63
2023-03-21T15:31:18.663Z,2.30
2023-03-21T15:33:48.238Z,2.70
2023-03-21T15:36:20.872Z,2.53
2023-03-21T15:38:51.230Z,1.95
2023-03-21T15:41:29.628Z,2.40
2023-03-21T15:44:03.979Z,2.50
2023-03-21T15:46:42.251Z,2.67
2023-03-21T15:49:12.078Z,2.47
2023-03-21T15:51:41.686Z,2.38
2023-03-21T15:54:17.209Z,2.75
2023-03-21T15:56:51.669Z,2.67
2023-03-21T15:59:20.030Z,2.60
2023-03-21T16:01:48.841Z,2.80
2023-03-21T16:04:18.503Z,2.60
2023-03-21T16:06:54.190Z,3.10
2023-03-21T16:09:23.512Z,2.50
2023-03-21T16:11:54.425Z,2.67
2023-03-21T16:14:23.589Z,2.53
2023-03-21T16:16:52.955Z,3.08
2023-03-21T16:19:21.125Z,2.70
2023-03-21T16:21:48.934Z,2.35
2023-03-21T16:24:16.792Z,2.58
2023-03-21T16:26:47.769Z,2.75
2023-03-21T16:29:18.305Z,2.28
2023-03-21T16:31:48.791Z,2.58
2023-03-21T16:34:16.713Z,2.70
2023-03-21T16:36:44.864Z,2.58
2023-03-21T16:39:18.996Z,2.53
2023-03-21T16:41:47.657Z,2.53
2023-03-21T16:44:17.295Z,2.60
2023-03-21T16:46:47.142Z,3.10
2023-03-21T16:49:20.553Z,2.45
2023-03-21T16:51:48.637Z,2.42
2023-03-21T16:54:16.516Z,2.53
2023-03-21T16:56:47.044Z,3.63
2023-03-21T16:59:15.642Z,2.67
2023-03-21T17:01:48.112Z,2.63
2023-03-21T17:04:17.283Z,2.67
2023-03-21T17:06:47.584Z,3.00
2023-03-21T17:09:17.197Z,3.28
2023-03-21T17:11:45.663Z,2.90
2023-03-21T17:14:16.799Z,3.10
2023-03-21T17:16:46.936Z,2.80
2023-03-21T17:19:17.029Z,3.22
2023-03-21T17:21:45.695Z,2.90
2023-03-21T17:24:14.118Z,7.45
2023-03-21T17:26:42.020Z,6.35
2023-03-21T17:29:13.880Z,5.32
2023-03-21T17:31:42.417Z,4.70
2023-03-21T17:34:11.570Z,3.83
2023-03-21T17:36:42.108Z,3.53
2023-03-21T17:39:15.738Z,4.45
2023-03-21T17:41:43.674Z,4.28
2023-03-21T17:44:11.493Z,4.25
2023-03-21T17:46:39.532Z,4.13
2023-03-21T17:49:08.078Z,3.78
2023-03-21T17:51:37.484Z,3.92
2023-03-21T17:54:06.061Z,4.22
2023-03-21T17:56:37.709Z,3.88
2023-03-21T17:59:08.365Z,5.35
2023-03-21T18:01:36.524Z,4.75
2023-03-21T18:04:05.052Z,4.50
2023-03-21T18:06:34.345Z,3.72
2023-03-21T18:09:07.162Z,3.55
2023-03-21T18:11:35.270Z,4.00
2023-03-21T18:14:15.398Z,6.38
2023-03-21T18:16:45.056Z,5.80
2023-03-21T18:19:13.836Z,5.45
2023-03-21T18:21:44.672Z,4.05
2023-03-21T18:24:14.641Z,3.75
2023-03-21T18:26:42.572Z,3.58
2023-03-21T18:32:06.686Z,3.63
2023-03-21T18:34:36.845Z,3.65
2023-03-21T18:37:07.465Z,3.83
2023-03-21T18:39:37.913Z,3.63
2023-03-21T18:42:06.761Z,3.38
2023-03-21T18:44:38.641Z,3.75
2023-03-21T18:47:07.742Z,3.75
2023-03-21T18:50:10.673Z,4.55
2023-03-21T18:52:24.248Z,6.05
2023-03-21T18:54:54.355Z,5.82
2023-03-21T18:57:38.825Z,4.95
2023-03-21T19:00:13.501Z,4.35
2023-03-21T19:02:46.732Z,4.00
2023-03-21T19:05:16.776Z,3.25
2023-03-21T19:07:44.626Z,3.53
2023-03-21T19:10:19.567Z,3.65
2023-03-21T19:12:48.785Z,3.50
2023-03-21T19:15:19.566Z,3.40
2023-03-21T19:20:36.486Z,3.00
2023-03-21T19:23:06.010Z,3.03
2023-03-21T19:25:35.358Z,3.00
2023-03-21T19:28:03.834Z,3.13
2023-03-21T19:30:31.724Z,3.30
2023-03-21T19:32:59.519Z,3.00
2023-03-21T19:35:28.334Z,3.65
2023-03-21T19:37:56.749Z,3.47
2023-03-21T19:40:24.631Z,4.95
2023-03-21T19:42:54.068Z,6.18
2023-03-21T19:45:21.952Z,5.88
2023-03-21T19:47:49.918Z,4.85
2023-03-21T19:53:06.050Z,3.22
2023-03-21T19:55:34.046Z,3.20
2023-03-21T19:58:03.328Z,4.50
2023-03-21T20:00:31.356Z,4.90
2023-03-21T20:02:59.280Z,6.18
2023-03-21T20:05:27.432Z,5.45
2023-03-21T20:07:57.186Z,4.80
2023-03-21T20:10:27.603Z,5.15
2023-03-21T20:12:55.885Z,5.88
2023-03-21T20:15:28.422Z,6.30
2023-03-21T20:18:01.968Z,5.65
2023-03-21T20:20:30.366Z,7.38
2023-03-21T20:23:06.999Z,6.55
2023-03-21T20:25:36.577Z,8.98
2023-03-21T20:28:26.056Z,9.18
2023-03-21T20:30:56.934Z,5.85
2023-03-21T20:33:25.180Z,5.35
2023-03-21T20:38:45.647Z,2.80
2023-03-21T20:41:13.843Z,2.63
2023-03-21T20:46:31.446Z,2.20
2023-03-21T20:48:59.764Z,2.42
2023-03-21T20:54:16.207Z,2.08
2023-03-21T20:56:44.282Z,1.90
2023-03-21T20:59:20.875Z,2.10
2023-03-21T21:01:54.441Z,2.08
2023-03-21T21:04:23.087Z,2.03
2023-03-21T21:06:55.270Z,1.95
2023-03-21T21:09:23.242Z,2.13
2023-03-21T21:12:07.809Z,2.30
2023-03-21T21:14:36.764Z,2.28
2023-03-21T21:17:26.746Z,2.28
2023-03-21T21:19:55.393Z,2.35
2023-03-21T21:22:23.236Z,2.13
2023-03-21T21:24:51.287Z,2.70
2023-03-21T21:27:19.901Z,2.80
2023-03-21T21:29:49.924Z,2.58
2023-03-21T21:32:19.807Z,2.35
2023-03-21T21:34:48.012Z,2.53
2023-03-21T21:37:16.151Z,2.38
2023-03-21T21:39:44.139Z,2.60
2023-03-21T21:42:12.300Z,2.72
2023-03-21T21:44:44.141Z,2.30
2023-03-21T21:47:12.239Z,2.37
2023-03-21T21:49:42.195Z,2.20
2023-03-21T21:52:13.649Z,2.67
2023-03-21T21:54:45.743Z,2.33
2023-03-21T21:57:18.948Z,2.45
2023-03-21T21:59:46.952Z,2.42
2023-03-21T22:02:16.804Z,2.28
2023-03-21T22:04:46.368Z,2.40
2023-03-21T22:07:15.107Z,2.30
2023-03-21T22:09:43.436Z,2.55
2023-03-21T22:12:11.750Z,2.50
2023-03-21T22:14:40.941Z,2.42
2023-03-21T22:17:08.796Z,2.55
2023-03-21T22:19:39.080Z,2.13
2023-03-21T22:22:09.397Z,2.35
2023-03-21T22:24:37.543Z,2.35
2023-03-21T22:27:05.965Z,2.38
2023-03-21T22:29:33.755Z,2.40
2023-03-21T22:32:01.659Z,2.70
2023-03-21T22:34:29.429Z,2.55
2023-03-21T22:36:57.738Z,2.65
2023-03-21T22:39:27.287Z,2.67
2023-03-21T22:41:56.693Z,2.35
2023-03-21T22:44:24.678Z,2.38
2023-03-21T22:46:52.541Z,2.60
2023-03-21T22:49:20.478Z,2.58
2023-03-21T22:51:48.335Z,2.50
2023-03-21T22:54:16.377Z,2.95
2023-03-21T22:56:45.806Z,2.67
2023-03-21T22:59:13.583Z,2.80
2023-03-21T23:01:43.043Z,2.80
2023-03-21T23:04:10.975Z,2.65
2023-03-21T23:06:38.888Z,2.63
2023-03-21T23:09:06.880Z,2.40
2023-03-21T23:11:34.712Z,2.90
2023-03-21T23:14:08.058Z,2.85
2023-03-21T23:16:38.545Z,2.22
2023-03-21T23:19:08.090Z,2.53
2023-03-21T23:21:38.228Z,2.83
2023-03-21T23:24:06.644Z,2.78
2023-03-21T23:26:34.517Z,2.85
2023-03-21T23:29:03.895Z,3.00
2023-03-21T23:31:33.079Z,3.03
2023-03-21T23:34:01.666Z,3.03
2023-03-21T23:36:29.760Z,3.00
2023-03-21T23:38:57.736Z,2.70
2023-03-21T23:41:26.082Z,2.75
2023-03-21T23:43:54.013Z,2.88
2023-03-21T23:46:23.261Z,2.70
2023-03-21T23:48:51.269Z,2.92
2023-03-21T23:51:19.687Z,2.95
2023-03-21T23:53:48.442Z,2.63
2023-03-21T23:56:18.753Z,2.78
2023-03-21T23:58:47.202Z,3.20
